createdAt,value
2022-12-18T00:00:17.817Z,-8.85
2022-12-18T00:01:21.546Z,-8.89
2022-12-18T00:02:24.346Z,-9.08
2022-12-18T00:03:27.073Z,-8.94
2022-12-18T00:04:35.617Z,-8.85
2022-12-18T00:05:37.368Z,-9.22
2022-12-18T00:06:44.065Z,-9.25
2022-12-18T00:07:46.266Z,-9.83
2022-12-18T00:08:49.808Z,-10.03
2022-12-18T00:09:51.668Z,-9.67
2022-12-18T00:10:54.327Z,-9.57
2022-12-18T00:13:18.701Z,-9.25
2022-12-18T00:14:20.387Z,-9.68
2022-12-18T00:15:23.241Z,-9.47
2022-12-18T00:16:31.059Z,-9.29
2022-12-18T00:17:33.976Z,-9.25
2022-12-18T00:18:36.332Z,-9.48
2022-12-18T00:19:42.081Z,-10.03
2022-12-18T00:20:43.764Z,-10.39
2022-12-18T00:21:47.852Z,-10.58
2022-12-18T00:22:49.845Z,-10.20
2022-12-18T00:23:56.179Z,-9.88
2022-12-18T00:24:58.251Z,-9.45
2022-12-18T00:26:03.531Z,-9.15
2022-12-18T00:27:05.301Z,-9.13
2022-12-18T00:28:10.501Z,-8.96
2022-12-18T00:29:14.997Z,-8.85
2022-12-18T00:30:17.751Z,-8.74
2022-12-18T00:31:21.723Z,-8.67
2022-12-18T00:32:24.536Z,-8.80
2022-12-18T00:33:26.445Z,-8.94
2022-12-18T00:34:32.174Z,-9.24
2022-12-18T00:35:36.975Z,-9.51
2022-12-18T00:36:42.824Z,-10.12
2022-12-18T00:37:57.967Z,-10.16
2022-12-18T00:39:04.518Z,-10.36
2022-12-18T00:40:07.510Z,-10.31
2022-12-18T00:41:13.843Z,-10.24
2022-12-18T00:42:34.379Z,-10.06
2022-12-18T00:43:36.439Z,-9.96
2022-12-18T00:44:38.493Z,-10.45
2022-12-18T00:45:47.274Z,-10.28
2022-12-18T00:46:52.240Z,-10.42
2022-12-18T00:47:58.549Z,-9.96
2022-12-18T00:49:06.253Z,-9.55
2022-12-18T00:50:10.487Z,-9.41
2022-12-18T00:51:14.512Z,-9.32
2022-12-18T00:52:17.326Z,-9.09
2022-12-18T00:53:20.668Z,-9.18
2022-12-18T00:54:23.443Z,-9.43
2022-12-18T00:55:25.216Z,-9.58
2022-12-18T00:56:27.949Z,-9.76
2022-12-18T00:57:32.083Z,-9.68
2022-12-18T00:58:34.734Z,-9.43
2022-12-18T00:59:39.062Z,-9.28
2022-12-18T01:00:41.869Z,-9.16
2022-12-18T01:01:43.775Z,-9.17
2022-12-18T01:02:46.940Z,-9.24
2022-12-18T01:03:48.748Z,-9.37
2022-12-18T01:04:51.392Z,-9.38
2022-12-18T01:05:54.104Z,-9.29
2022-12-18T01:06:55.903Z,-9.16
2022-12-18T01:08:01.130Z,-9.03
2022-12-18T01:09:04.858Z,-9.83
2022-12-18T01:10:09.432Z,-10.29
2022-12-18T01:11:13.028Z,-9.92
2022-12-18T01:12:15.857Z,-9.68
2022-12-18T01:13:19.777Z,-9.88
2022-12-18T01:14:22.850Z,-9.73
2022-12-18T01:15:24.535Z,-9.59
2022-12-18T01:16:27.453Z,-9.45
2022-12-18T01:17:30.553Z,-9.31
2022-12-18T01:18:35.648Z,-9.27
2022-12-18T01:19:37.356Z,-9.27
2022-12-18T01:20:40.463Z,-9.91
2022-12-18T01:21:42.152Z,-10.52
2022-12-18T01:22:47.171Z,-10.73
2022-12-18T01:23:52.944Z,-10.70
2022-12-18T01:24:58.784Z,-11.07
2022-12-18T01:26:05.594Z,-10.62
2022-12-18T01:27:10.373Z,-10.52
2022-12-18T01:28:12.129Z,-10.94
2022-12-18T01:29:14.779Z,-10.93
2022-12-18T01:30:16.451Z,-10.91
2022-12-18T01:31:21.464Z,-10.87
2022-12-18T01:32:23.619Z,-11.03
2022-12-18T01:33:26.257Z,-10.90
2022-12-18T01:34:28.103Z,-11.16
2022-12-18T01:35:30.776Z,-11.04
2022-12-18T01:36:34.461Z,-11.05
2022-12-18T01:37:37.139Z,-10.76
2022-12-18T01:38:38.779Z,-11.17
2022-12-18T01:39:44.387Z,-10.79
2022-12-18T01:40:47.352Z,-10.36
2022-12-18T01:42:05.238Z,-10.10
2022-12-18T01:43:10.245Z,-9.76
2022-12-18T01:44:46.668Z,-9.55
2022-12-18T01:45:49.362Z,-9.34
2022-12-18T01:46:50.940Z,-9.22
2022-12-18T01:47:57.021Z,-9.25
2022-12-18T01:49:01.579Z,-9.37
2022-12-18T01:50:08.447Z,-9.77
2022-12-18T01:51:14.410Z,-9.83
2022-12-18T01:52:19.063Z,-10.06
2022-12-18T01:53:24.810Z,-10.18
2022-12-18T01:54:30.027Z,-10.23
2022-12-18T01:55:38.149Z,-10.21
2022-12-18T01:56:41.280Z,-9.88
2022-12-18T01:57:44.257Z,-9.77
2022-12-18T01:58:54.504Z,-9.49
2022-12-18T02:00:03.979Z,-9.30
2022-12-18T02:01:05.989Z,-9.26
2022-12-18T02:02:09.861Z,-9.19
2022-12-18T02:03:12.171Z,-9.58
2022-12-18T02:04:23.190Z,-9.93
2022-12-18T02:05:37.375Z,-10.78
2022-12-18T02:06:43.878Z,-11.16
2022-12-18T02:07:58.027Z,-11.50
2022-12-18T02:09:11.997Z,-11.68
2022-12-18T02:10:20.573Z,-11.53
2022-12-18T02:11:37.292Z,-11.22
2022-12-18T02:12:45.906Z,-10.92
2022-12-18T02:13:55.547Z,-10.43
2022-12-18T02:15:06.932Z,-10.32
2022-12-18T02:16:17.320Z,-10.31
2022-12-18T02:17:22.212Z,-10.20
2022-12-18T02:18:30.252Z,-10.10
2022-12-18T02:19:48.678Z,-10.18
2022-12-18T02:20:57.463Z,-9.86
2022-12-18T02:22:13.645Z,-10.06
2022-12-18T02:23:27.638Z,-10.28
2022-12-18T02:24:40.962Z,-10.03
2022-12-18T02:26:06.940Z,-9.98
2022-12-18T02:27:10.539Z,-9.89
2022-12-18T02:28:17.803Z,-9.74
2022-12-18T02:29:25.123Z,-9.66
2022-12-18T02:30:31.028Z,-9.79
2022-12-18T02:31:36.660Z,-10.28
2022-12-18T02:32:43.494Z,-10.69
2022-12-18T02:33:46.904Z,-10.76
2022-12-18T02:34:51.134Z,-11.00
2022-12-18T02:35:55.106Z,-11.49
2022-12-18T02:37:00.168Z,-11.55
2022-12-18T02:38:04.094Z,-11.96
2022-12-18T02:39:10.107Z,-11.91
2022-12-18T02:40:14.221Z,-11.86
2022-12-18T02:41:19.353Z,-11.98
2022-12-18T02:42:21.144Z,-12.07
2022-12-18T02:43:26.259Z,-11.83
2022-12-18T02:44:28.041Z,-12.01
2022-12-18T02:45:30.705Z,-11.89
2022-12-18T02:46:37.600Z,-11.79
2022-12-18T02:47:44.268Z,-11.81
2022-12-18T02:48:47.632Z,-11.73
2022-12-18T02:49:59.433Z,-11.62
2022-12-18T02:51:08.079Z,-11.13
2022-12-18T02:52:20.195Z,-11.04
2022-12-18T02:53:29.385Z,-10.89
2022-12-18T02:54:45.458Z,-10.98
2022-12-18T02:55:58.422Z,-11.07
2022-12-18T02:57:11.704Z,-10.85
2022-12-18T02:58:17.209Z,-11.22
2022-12-18T02:59:25.071Z,-11.19
2022-12-18T03:00:34.431Z,-11.42
2022-12-18T03:01:45.271Z,-11.59
2022-12-18T03:02:55.272Z,-11.63
2022-12-18T03:04:01.684Z,-11.46
2022-12-18T03:05:10.584Z,-11.62
2022-12-18T03:06:23.503Z,-11.82
2022-12-18T03:07:35.817Z,-11.90
2022-12-18T03:08:41.279Z,-11.76
2022-12-18T03:09:47.718Z,-11.36
2022-12-18T03:10:55.994Z,-10.88
2022-12-18T03:12:22.425Z,-10.58
2022-12-18T03:13:34.057Z,-10.29
2022-12-18T03:14:39.057Z,-10.28
2022-12-18T03:15:45.948Z,-10.26
2022-12-18T03:16:52.691Z,-10.25
2022-12-18T03:18:01.265Z,-10.30
2022-12-18T03:19:07.027Z,-10.50
2022-12-18T03:20:14.153Z,-10.88
2022-12-18T03:21:18.584Z,-11.27
2022-12-18T03:22:22.969Z,-11.43
2022-12-18T03:23:29.839Z,-11.27
2022-12-18T03:24:35.315Z,-10.78
2022-12-18T03:25:40.766Z,-10.47
2022-12-18T03:26:54.514Z,-10.24
2022-12-18T03:28:02.527Z,-10.25
2022-12-18T03:29:09.560Z,-10.67
2022-12-18T03:30:14.156Z,-11.02
2022-12-18T03:31:18.148Z,-11.39
2022-12-18T03:32:25.196Z,-11.19
2022-12-18T03:33:31.757Z,-11.45
2022-12-18T03:34:38.887Z,-11.54
2022-12-18T03:35:44.656Z,-11.52
2022-12-18T03:36:46.579Z,-11.65
2022-12-18T03:37:49.216Z,-11.14
2022-12-18T03:38:52.196Z,-10.81
2022-12-18T03:39:54.192Z,-10.66
2022-12-18T03:41:05.105Z,-10.99
2022-12-18T03:42:12.730Z,-10.71
2022-12-18T03:43:22.845Z,-10.37
2022-12-18T03:44:33.616Z,-10.20
2022-12-18T03:45:38.324Z,-10.02
2022-12-18T03:46:48.111Z,-9.97
2022-12-18T03:48:01.237Z,-10.32
2022-12-18T03:49:12.359Z,-10.29
2022-12-18T03:50:20.157Z,-10.31
2022-12-18T03:51:30.684Z,-10.32
2022-12-18T03:52:39.100Z,-10.11
2022-12-18T03:53:47.210Z,-10.04
2022-12-18T03:54:50.189Z,-10.65
2022-12-18T03:55:53.068Z,-11.45
2022-12-18T03:57:02.800Z,-11.49
2022-12-18T03:58:07.515Z,-11.04
2022-12-18T03:59:13.488Z,-10.69
2022-12-18T04:00:18.119Z,-10.40
2022-12-18T04:01:26.012Z,-10.33
2022-12-18T04:02:29.874Z,-11.12
2022-12-18T04:03:36.381Z,-11.63
2022-12-18T04:04:41.230Z,-11.50
2022-12-18T04:05:45.561Z,-11.59
2022-12-18T04:06:49.234Z,-11.33
2022-12-18T04:07:53.243Z,-11.22
2022-12-18T04:08:55.075Z,-10.79
2022-12-18T04:10:03.430Z,-10.68
2022-12-18T04:11:05.336Z,-10.56
2022-12-18T04:12:10.252Z,-10.45
2022-12-18T04:13:12.187Z,-10.53
2022-12-18T04:14:18.241Z,-10.40
2022-12-18T04:15:20.409Z,-10.68
2022-12-18T04:16:23.004Z,-11.83
2022-12-18T04:17:25.037Z,-12.39
2022-12-18T04:18:30.611Z,-12.51
2022-12-18T04:19:33.305Z,-12.36
2022-12-18T04:20:34.911Z,-12.06
2022-12-18T04:21:37.580Z,-12.09
2022-12-18T04:22:39.220Z,-12.07
2022-12-18T04:23:42.063Z,-12.22
2022-12-18T04:24:43.936Z,-12.39
2022-12-18T04:25:47.383Z,-12.47
2022-12-18T04:26:48.978Z,-12.06
2022-12-18T04:27:51.618Z,-11.56
2022-12-18T04:28:53.331Z,-11.75
2022-12-18T04:29:57.309Z,-11.47
2022-12-18T04:30:59.009Z,-11.51
2022-12-18T04:32:01.624Z,-11.27
2022-12-18T04:33:03.617Z,-11.03
2022-12-18T04:34:09.316Z,-10.85
2022-12-18T04:35:12.145Z,-10.50
2022-12-18T04:36:14.879Z,-10.27
2022-12-18T04:37:16.585Z,-10.19
2022-12-18T04:38:19.184Z,-10.12
2022-12-18T04:39:20.771Z,-10.00
2022-12-18T04:40:23.422Z,-10.08
2022-12-18T04:41:24.994Z,-10.28
2022-12-18T04:42:27.536Z,-10.39
2022-12-18T04:43:29.195Z,-10.33
2022-12-18T04:44:31.793Z,-10.59
2022-12-18T04:45:34.864Z,-11.02
2022-12-18T04:46:37.611Z,-11.46
2022-12-18T04:47:39.277Z,-11.63
2022-12-18T04:48:41.838Z,-11.50
2022-12-18T04:49:43.455Z,-11.84
2022-12-18T04:50:46.341Z,-12.07
2022-12-18T04:51:49.713Z,-11.67
2022-12-18T04:52:52.339Z,-11.18
2022-12-18T04:53:54.902Z,-10.91
2022-12-18T04:54:56.481Z,-10.66
2022-12-18T04:56:06.915Z,-10.65
2022-12-18T04:57:08.553Z,-10.63
2022-12-18T04:58:19.819Z,-10.43
2022-12-18T04:59:24.196Z,-11.18
2022-12-18T05:00:27.031Z,-11.47
2022-12-18T05:01:34.785Z,-11.35
2022-12-18T05:02:37.988Z,-11.22
2022-12-18T05:03:43.212Z,-11.21
2022-12-18T05:04:46.476Z,-11.19
2022-12-18T05:05:53.393Z,-10.87
2022-12-18T05:06:56.076Z,-10.52
2022-12-18T05:07:57.722Z,-10.42
2022-12-18T05:09:01.932Z,-10.28
2022-12-18T05:10:06.419Z,-10.30
2022-12-18T05:11:10.717Z,-10.34
2022-12-18T05:12:12.343Z,-10.34
2022-12-18T05:13:15.128Z,-10.63
2022-12-18T05:14:16.791Z,-11.23
2022-12-18T05:15:19.458Z,-11.02
2022-12-18T05:16:22.155Z,-11.04
2022-12-18T05:17:25.333Z,-10.99
2022-12-18T05:18:31.033Z,-10.77
2022-12-18T05:19:32.713Z,-10.52
2022-12-18T05:20:35.292Z,-10.87
2022-12-18T05:21:39.220Z,-11.78
2022-12-18T05:22:43.757Z,-11.77
2022-12-18T05:23:45.498Z,-12.15
2022-12-18T05:24:48.085Z,-12.24
2022-12-18T05:25:52.502Z,-12.21
2022-12-18T05:26:55.121Z,-12.42
2022-12-18T05:27:56.725Z,-12.40
2022-12-18T05:29:01.628Z,-12.51
2022-12-18T05:30:04.142Z,-12.42
2022-12-18T05:31:07.263Z,-12.28
2022-12-18T05:32:09.128Z,-11.84
2022-12-18T05:33:13.120Z,-11.64
2022-12-18T05:34:15.024Z,-11.53
2022-12-18T05:35:17.833Z,-11.63
2022-12-18T05:36:19.548Z,-11.23
2022-12-18T05:37:22.157Z,-10.97
2022-12-18T05:38:25.394Z,-10.93
2022-12-18T05:39:30.755Z,-11.05
2022-12-18T05:40:32.393Z,-11.30
2022-12-18T05:41:35.959Z,-11.18
2022-12-18T05:42:37.973Z,-10.98
2022-12-18T05:43:42.254Z,-11.25
2022-12-18T05:44:44.961Z,-11.53
2022-12-18T05:45:47.824Z,-12.04
2022-12-18T05:46:52.376Z,-11.75
2022-12-18T05:47:57.092Z,-11.39
2022-12-18T05:49:02.190Z,-11.35
2022-12-18T05:50:05.311Z,-11.07
2022-12-18T05:51:11.701Z,-10.97
2022-12-18T05:52:16.271Z,-10.84
2022-12-18T05:53:21.357Z,-11.20
2022-12-18T05:54:29.418Z,-11.98
2022-12-18T05:55:34.046Z,-12.38
2022-12-18T05:56:36.646Z,-12.26
2022-12-18T05:57:40.475Z,-12.16
2022-12-18T05:58:43.759Z,-12.15
2022-12-18T05:59:45.431Z,-12.01
2022-12-18T06:00:48.186Z,-11.96
2022-12-18T06:01:50.262Z,-11.73
2022-12-18T06:02:53.075Z,-11.45
2022-12-18T06:03:55.880Z,-11.33
2022-12-18T06:05:02.656Z,-11.08
2022-12-18T06:06:04.673Z,-11.15
2022-12-18T06:07:07.279Z,-11.22
2022-12-18T06:08:09.853Z,-11.23
2022-12-18T06:09:15.601Z,-11.78
2022-12-18T06:10:19.232Z,-11.88
2022-12-18T06:11:24.199Z,-11.87
2022-12-18T06:12:26.207Z,-12.13
2022-12-18T06:13:28.828Z,-12.15
2022-12-18T06:14:30.622Z,-11.71
2022-12-18T06:15:33.471Z,-11.50
2022-12-18T06:16:35.223Z,-11.30
2022-12-18T06:17:37.954Z,-11.41
2022-12-18T06:18:39.663Z,-11.63
2022-12-18T06:19:42.543Z,-11.52
2022-12-18T06:20:45.854Z,-11.22
2022-12-18T06:21:50.156Z,-11.06
2022-12-18T06:22:51.828Z,-10.90
2022-12-18T06:23:54.702Z,-11.19
2022-12-18T06:24:56.385Z,-11.31
2022-12-18T06:25:59.390Z,-11.02
2022-12-18T06:27:01.025Z,-11.04
2022-12-18T06:28:03.810Z,-11.04
2022-12-18T06:29:07.126Z,-10.86
2022-12-18T06:30:11.352Z,-10.77
2022-12-18T06:31:13.317Z,-10.68
2022-12-18T06:32:16.040Z,-10.91
2022-12-18T06:33:18.144Z,-10.87
2022-12-18T06:34:20.755Z,-10.61
2022-12-18T06:35:22.520Z,-10.46
2022-12-18T06:36:26.932Z,-10.42
2022-12-18T06:37:29.192Z,-11.01
2022-12-18T06:38:32.907Z,-11.63
2022-12-18T06:39:34.576Z,-12.31
2022-12-18T06:40:39.376Z,-12.84
2022-12-18T06:41:40.972Z,-12.81
2022-12-18T06:42:43.788Z,-12.47
2022-12-18T06:43:45.771Z,-11.94
2022-12-18T06:44:48.696Z,-11.95
2022-12-18T06:45:53.609Z,-11.65
2022-12-18T06:46:57.060Z,-11.87
2022-12-18T06:47:58.820Z,-11.75
2022-12-18T06:49:02.016Z,-11.63
2022-12-18T06:50:08.635Z,-11.37
2022-12-18T06:51:11.258Z,-11.10
2022-12-18T06:52:16.906Z,-10.99
2022-12-18T06:53:19.781Z,-10.79
2022-12-18T06:54:21.793Z,-10.76
2022-12-18T06:55:25.070Z,-10.72
2022-12-18T06:56:27.704Z,-10.79
2022-12-18T06:57:29.437Z,-11.24
2022-12-18T06:58:32.208Z,-11.56
2022-12-18T06:59:34.030Z,-11.77
2022-12-18T07:00:37.206Z,-12.25
2022-12-18T07:01:39.036Z,-12.77
2022-12-18T07:02:41.883Z,-12.93
2022-12-18T07:03:44.770Z,-12.36
2022-12-18T07:04:47.733Z,-12.09
2022-12-18T07:05:49.332Z,-11.84
2022-12-18T07:06:51.873Z,-11.72
2022-12-18T07:07:55.042Z,-11.40
2022-12-18T07:09:00.114Z,-11.36
2022-12-18T07:10:01.738Z,-11.08
2022-12-18T07:11:06.293Z,-11.10
2022-12-18T07:12:09.108Z,-11.10
2022-12-18T07:13:10.792Z,-10.91
2022-12-18T07:14:13.438Z,-10.91
2022-12-18T07:15:20.726Z,-10.77
2022-12-18T07:16:26.254Z,-11.02
2022-12-18T07:17:29.332Z,-10.98
2022-12-18T07:18:31.039Z,-10.81
2022-12-18T07:19:36.816Z,-10.74
2022-12-18T07:20:38.523Z,-11.23
2022-12-18T07:21:43.851Z,-11.44
2022-12-18T07:22:52.065Z,-11.26
2022-12-18T07:24:02.797Z,-11.66
2022-12-18T07:25:12.526Z,-11.87
2022-12-18T07:26:18.079Z,-12.03
2022-12-18T07:27:24.080Z,-12.10
2022-12-18T07:28:28.710Z,-11.71
2022-12-18T07:29:31.945Z,-11.34
2022-12-18T07:30:33.837Z,-11.02
2022-12-18T07:31:38.933Z,-10.86
2022-12-18T07:32:40.897Z,-10.77
2022-12-18T07:33:45.193Z,-10.99
2022-12-18T07:34:46.853Z,-11.22
2022-12-18T07:35:52.384Z,-11.32
2022-12-18T07:36:54.962Z,-11.41
2022-12-18T07:37:56.622Z,-11.92
2022-12-18T07:39:02.222Z,-12.27
2022-12-18T07:40:04.350Z,-12.39
2022-12-18T07:41:10.122Z,-11.84
2022-12-18T07:42:30.628Z,-11.49
2022-12-18T07:43:33.264Z,-11.27
2022-12-18T07:44:38.218Z,-11.03
2022-12-18T07:45:40.891Z,-11.43
2022-12-18T07:46:42.928Z,-11.50
2022-12-18T07:47:45.568Z,-11.39
2022-12-18T07:48:50.522Z,-11.28
2022-12-18T07:49:53.265Z,-11.06
2022-12-18T07:50:54.994Z,-11.21
2022-12-18T07:51:58.477Z,-11.00
2022-12-18T07:53:04.621Z,-10.86
2022-12-18T07:54:08.509Z,-11.09
2022-12-18T07:55:10.218Z,-11.20
2022-12-18T07:56:31.464Z,-11.15
2022-12-18T07:57:50.114Z,-11.23
2022-12-18T07:58:54.114Z,-11.23
2022-12-18T07:59:55.770Z,-11.07
2022-12-18T08:01:08.715Z,-11.05
2022-12-18T08:02:10.609Z,-11.15
2022-12-18T08:03:15.062Z,-10.77
2022-12-18T08:04:18.022Z,-10.59
2022-12-18T08:05:19.689Z,-10.36
2022-12-18T08:06:23.992Z,-10.36
2022-12-18T08:07:27.183Z,-10.60
2022-12-18T08:08:29.399Z,-10.99
2022-12-18T08:09:33.386Z,-11.06
2022-12-18T08:10:35.388Z,-10.97
2022-12-18T08:11:40.601Z,-10.74
2022-12-18T08:12:42.330Z,-10.74
2022-12-18T08:13:44.885Z,-10.79
2022-12-18T08:14:46.579Z,-11.49
2022-12-18T08:16:00.593Z,-12.18
2022-12-18T08:17:02.253Z,-12.30
2022-12-18T08:18:05.972Z,-12.14
2022-12-18T08:19:12.048Z,-11.65
2022-12-18T08:20:15.884Z,-11.21
2022-12-18T08:21:21.996Z,-10.80
2022-12-18T08:22:23.742Z,-10.71
2022-12-18T08:23:28.733Z,-10.63
2022-12-18T08:24:33.648Z,-10.45
2022-12-18T08:25:35.341Z,-10.31
2022-12-18T08:27:06.658Z,-10.25
2022-12-18T08:28:12.482Z,-10.06
2022-12-18T08:29:17.322Z,-9.88
2022-12-18T08:30:24.015Z,-10.07
2022-12-18T08:31:27.544Z,-10.27
2022-12-18T08:32:30.279Z,-10.21
2022-12-18T08:33:32.086Z,-10.08
2022-12-18T08:34:37.498Z,-10.06
2022-12-18T08:35:45.485Z,-10.37
2022-12-18T08:36:48.519Z,-10.73
2022-12-18T08:37:51.005Z,-10.40
2022-12-18T08:38:54.171Z,-10.22
2022-12-18T08:39:58.301Z,-9.97
2022-12-18T08:41:01.051Z,-9.71
2022-12-18T08:42:24.262Z,-9.59
2022-12-18T08:43:44.885Z,-9.74
2022-12-18T08:44:53.550Z,-10.08
2022-12-18T08:45:55.287Z,-9.85
2022-12-18T08:46:58.131Z,-9.83
2022-12-18T08:47:59.768Z,-9.47
2022-12-18T08:49:02.460Z,-9.27
2022-12-18T08:50:07.060Z,-9.11
2022-12-18T08:51:10.492Z,-9.14
2022-12-18T08:52:13.151Z,-9.48
2022-12-18T08:53:15.248Z,-9.35
2022-12-18T08:54:17.993Z,-9.21
2022-12-18T08:55:24.102Z,-9.02
2022-12-18T08:56:25.959Z,-9.09
2022-12-18T08:57:28.675Z,-9.05
2022-12-18T08:58:30.860Z,-8.83
2022-12-18T08:59:36.181Z,-8.74
2022-12-18T09:00:40.523Z,-8.74
2022-12-18T09:01:43.198Z,-8.61
2022-12-18T09:02:45.029Z,-8.79
2022-12-18T09:03:47.663Z,-8.78
2022-12-18T09:04:56.914Z,-8.61
2022-12-18T09:06:00.444Z,-8.94
2022-12-18T09:07:02.148Z,-8.86
2022-12-18T09:08:04.931Z,-8.80
2022-12-18T09:09:08.030Z,-8.65
2022-12-18T09:10:10.025Z,-8.41
2022-12-18T09:11:20.661Z,-8.20
2022-12-18T09:12:23.263Z,-8.07
2022-12-18T09:13:25.161Z,-7.96
2022-12-18T09:14:27.707Z,-7.91
2022-12-18T09:15:29.293Z,-7.89
2022-12-18T09:16:33.539Z,-8.05
2022-12-18T09:17:35.674Z,-7.92
2022-12-18T09:18:38.709Z,-7.93
2022-12-18T09:19:41.589Z,-7.90
2022-12-18T09:20:43.375Z,-7.98
2022-12-18T09:21:48.285Z,-8.11
2022-12-18T09:22:50.221Z,-7.85
2022-12-18T09:23:54.221Z,-7.67
2022-12-18T09:24:58.431Z,-7.68
2022-12-18T09:26:02.614Z,-7.54
2022-12-18T09:27:07.699Z,-7.41
2022-12-18T09:28:20.065Z,-7.27
2022-12-18T09:29:23.123Z,-7.03
2022-12-18T09:30:24.761Z,-6.92
2022-12-18T09:31:29.819Z,-6.85
2022-12-18T09:32:32.388Z,-6.97
2022-12-18T09:33:37.905Z,-7.07
2022-12-18T09:34:39.995Z,-7.26
2022-12-18T09:35:44.733Z,-7.21
2022-12-18T09:36:47.709Z,-7.12
2022-12-18T09:37:49.726Z,-7.07
2022-12-18T09:38:52.450Z,-7.25
2022-12-18T09:39:55.474Z,-7.14
2022-12-18T09:41:02.409Z,-7.18
2022-12-18T09:42:07.548Z,-7.31
2022-12-18T09:43:19.736Z,-7.35
2022-12-18T09:44:27.115Z,-6.96
2022-12-18T09:45:33.172Z,-6.81
2022-12-18T09:46:42.574Z,-6.74
2022-12-18T09:47:47.989Z,-6.48
2022-12-18T09:48:53.490Z,-6.36
2022-12-18T09:50:00.187Z,-6.19
2022-12-18T09:51:10.424Z,-6.11
2022-12-18T09:52:19.628Z,-5.97
2022-12-18T09:53:29.385Z,-5.84
2022-12-18T09:54:37.442Z,-5.67
2022-12-18T09:55:43.850Z,-5.61
2022-12-18T09:56:45.934Z,-5.41
2022-12-18T09:57:54.330Z,-5.35
2022-12-18T09:58:59.468Z,-5.19
2022-12-18T10:00:19.318Z,-4.99
2022-12-18T10:01:24.313Z,-4.79
2022-12-18T10:02:32.095Z,-4.64
2022-12-18T10:03:33.775Z,-4.57
2022-12-18T10:04:36.319Z,-4.40
2022-12-18T10:05:45.327Z,-4.28
2022-12-18T10:06:56.428Z,-3.93
2022-12-18T10:08:08.109Z,-3.65
2022-12-18T10:09:21.364Z,-3.28
2022-12-18T10:10:33.008Z,-2.72
2022-12-18T10:11:45.584Z,-2.01
2022-12-18T10:13:04.293Z,-0.94
2022-12-18T10:14:16.697Z,-0.19
2022-12-18T10:15:30.304Z,0.43
2022-12-18T10:16:41.834Z,0.95
2022-12-18T10:17:52.136Z,1.72
2022-12-18T10:19:12.145Z,2.10
2022-12-18T10:20:19.484Z,2.29
2022-12-18T10:21:28.949Z,2.32
2022-12-18T10:22:45.357Z,2.27
2022-12-18T10:23:57.550Z,1.38
2022-12-18T10:25:06.596Z,0.91
2022-12-18T10:26:23.293Z,0.60
2022-12-18T10:27:31.535Z,0.16
2022-12-18T10:28:38.480Z,-0.35
2022-12-18T10:29:41.535Z,-0.59
2022-12-18T10:30:45.611Z,-1.15
2022-12-18T10:31:49.917Z,-1.56
2022-12-18T10:32:53.237Z,-1.86
2022-12-18T10:33:56.578Z,-2.09
2022-12-18T10:35:01.120Z,-2.19
2022-12-18T10:36:04.160Z,-2.33
2022-12-18T10:37:15.713Z,-2.38
2022-12-18T10:38:28.172Z,-2.38
2022-12-18T10:39:29.766Z,-2.44
2022-12-18T10:40:32.740Z,-2.50
2022-12-18T10:41:35.663Z,-2.57
2022-12-18T10:42:37.276Z,-2.64
2022-12-18T10:43:42.424Z,-2.61
2022-12-18T10:44:44.027Z,-2.53
2022-12-18T10:46:04.148Z,-2.45
2022-12-18T10:47:13.087Z,-2.39
2022-12-18T10:48:22.327Z,-2.36
2022-12-18T10:49:27.689Z,-2.38
2022-12-18T10:51:08.657Z,-2.30
2022-12-18T10:52:09.152Z,-2.27
2022-12-18T10:53:21.216Z,-2.20
2022-12-18T10:54:25.774Z,-2.17
2022-12-18T10:55:33.522Z,-2.20
2022-12-18T10:56:38.603Z,-2.27
2022-12-18T10:57:42.585Z,-2.24
2022-12-18T10:58:58.664Z,-2.19
2022-12-18T11:00:22.773Z,-2.02
2022-12-18T11:01:25.412Z,-2.00
2022-12-18T11:02:34.283Z,-1.91
2022-12-18T11:03:38.985Z,-1.96
2022-12-18T11:04:53.470Z,-2.26
2022-12-18T11:06:03.307Z,-2.07
2022-12-18T11:07:07.789Z,-1.90
2022-12-18T11:08:26.015Z,-1.85
2022-12-18T11:09:29.828Z,-1.80
2022-12-18T11:10:33.488Z,-1.67
2022-12-18T11:11:36.698Z,-1.57
2022-12-18T11:12:38.321Z,-1.48
2022-12-18T11:13:41.554Z,-1.43
2022-12-18T11:14:48.150Z,-1.27
2022-12-18T11:15:51.712Z,-1.19
2022-12-18T11:17:26.206Z,-1.28
2022-12-18T11:18:21.817Z,-1.33
2022-12-18T11:19:33.763Z,-1.14
2022-12-18T11:20:36.955Z,-1.02
2022-12-18T11:21:43.419Z,-1.00
2022-12-18T11:22:57.357Z,-0.89
2022-12-18T11:24:00.154Z,-0.74
2022-12-18T11:26:37.180Z,-0.59
2022-12-18T11:27:39.326Z,-0.58
2022-12-18T11:28:45.588Z,-0.52
2022-12-18T11:29:52.486Z,-0.41
2022-12-18T11:31:13.781Z,-0.34
2022-12-18T11:32:31.188Z,-0.37
2022-12-18T11:33:33.992Z,-0.26
2022-12-18T11:34:37.114Z,-0.14
2022-12-18T11:35:45.249Z,0.04
2022-12-18T11:36:49.763Z,0.19
2022-12-18T11:37:58.566Z,0.30
2022-12-18T11:39:07.891Z,0.64
2022-12-18T11:40:15.555Z,1.30
2022-12-18T11:41:45.880Z,1.88
2022-12-18T11:42:51.506Z,2.00
2022-12-18T11:43:59.084Z,3.12
2022-12-18T11:45:24.527Z,3.79
2022-12-18T11:46:36.667Z,4.68
2022-12-18T11:47:45.186Z,4.96
2022-12-18T11:48:54.198Z,4.88
2022-12-18T11:50:00.467Z,4.73
2022-12-18T11:51:07.554Z,5.00
2022-12-18T11:52:16.851Z,4.59
2022-12-18T11:53:20.328Z,4.44
2022-12-18T11:54:22.008Z,4.47
2022-12-18T11:55:33.104Z,4.34
2022-12-18T11:56:38.460Z,4.54
2022-12-18T11:57:47.345Z,4.98
2022-12-18T11:58:57.038Z,5.71
2022-12-18T12:00:11.069Z,6.65
2022-12-18T12:01:25.002Z,7.05
2022-12-18T12:02:43.857Z,7.38
2022-12-18T12:04:14.523Z,7.16
2022-12-18T12:05:37.466Z,7.40
2022-12-18T12:06:48.580Z,7.83
2022-12-18T12:07:56.301Z,8.17
2022-12-18T12:09:09.781Z,7.16
2022-12-18T12:10:27.964Z,7.58
2022-12-18T12:11:40.486Z,7.82
2022-12-18T12:12:58.104Z,8.42
2022-12-18T12:14:18.288Z,9.01
2022-12-18T12:15:36.836Z,9.43
2022-12-18T12:16:48.433Z,9.55
2022-12-18T12:18:00.091Z,8.25
2022-12-18T12:19:21.435Z,8.53
2022-12-18T12:20:36.262Z,8.28
2022-12-18T12:21:41.472Z,8.18
2022-12-18T12:22:54.849Z,8.13
2022-12-18T12:24:04.476Z,7.73
2022-12-18T12:25:20.058Z,7.92
2022-12-18T12:26:32.315Z,7.97
2022-12-18T12:27:46.309Z,8.53
2022-12-18T12:29:03.919Z,8.97
2022-12-18T12:30:10.402Z,9.52
2022-12-18T12:31:21.006Z,10.43
2022-12-18T12:32:36.864Z,11.09
2022-12-18T12:33:49.402Z,11.39
2022-12-18T12:35:09.609Z,11.89
2022-12-18T12:36:21.597Z,11.57
2022-12-18T12:37:36.035Z,11.46
2022-12-18T12:38:48.298Z,11.33
2022-12-18T12:39:56.471Z,10.65
2022-12-18T12:41:03.127Z,9.74
2022-12-18T12:42:32.136Z,9.27
2022-12-18T12:43:46.119Z,8.64
2022-12-18T12:44:56.245Z,6.94
2022-12-18T12:46:02.287Z,6.32
2022-12-18T12:47:16.965Z,5.80
2022-12-18T12:48:30.030Z,5.23
2022-12-18T12:49:40.394Z,4.42
2022-12-18T12:50:44.011Z,4.43
2022-12-18T12:51:49.205Z,4.46
2022-12-18T12:52:55.203Z,3.68
2022-12-18T12:54:00.095Z,4.23
2022-12-18T12:55:07.973Z,3.57
2022-12-18T12:56:16.282Z,2.77
2022-12-18T12:57:23.733Z,2.59
2022-12-18T12:58:35.615Z,1.74
2022-12-18T12:59:48.984Z,1.91
2022-12-18T13:00:59.972Z,2.00
2022-12-18T13:02:13.415Z,1.61
2022-12-18T13:03:32.011Z,0.63
2022-12-18T13:04:39.116Z,1.34
2022-12-18T13:05:46.665Z,0.85
2022-12-18T13:06:55.601Z,0.37
2022-12-18T13:08:02.787Z,0.08
2022-12-18T13:09:06.068Z,-0.18
2022-12-18T13:10:17.554Z,0.10
2022-12-18T13:11:54.845Z,0.11
2022-12-18T13:13:03.334Z,-0.01
2022-12-18T13:14:06.258Z,0.18
2022-12-18T13:15:23.432Z,0.29
2022-12-18T13:16:28.223Z,0.24
2022-12-18T13:17:32.196Z,0.04
2022-12-18T13:18:35.877Z,-0.21
2022-12-18T13:19:37.522Z,-0.38
2022-12-18T13:20:42.581Z,-0.06
2022-12-18T13:21:55.389Z,-0.03
2022-12-18T13:22:56.953Z,0.05
2022-12-18T13:24:17.781Z,-0.12
2022-12-18T13:25:35.698Z,0.12
2022-12-18T13:26:38.554Z,-0.38
2022-12-18T13:28:04.437Z,-0.70
2022-12-18T13:29:07.421Z,-0.39
2022-12-18T13:30:43.335Z,-0.37
2022-12-18T13:32:22.810Z,-0.48
2022-12-18T13:34:25.822Z,-0.67
2022-12-18T13:35:43.646Z,-0.88
2022-12-18T13:36:49.514Z,-1.22
2022-12-18T13:37:53.530Z,-0.92
2022-12-18T13:39:30.322Z,-0.58
2022-12-18T13:40:59.056Z,-0.36
2022-12-18T13:42:56.781Z,-0.05
2022-12-18T13:44:14.024Z,0.17
2022-12-18T13:45:43.746Z,-0.03
2022-12-18T13:46:50.641Z,0.17
2022-12-18T13:47:52.587Z,-0.23
2022-12-18T13:49:02.052Z,-0.39
2022-12-18T13:50:11.402Z,-0.19
2022-12-18T13:51:19.394Z,-0.25
2022-12-18T13:52:24.590Z,0.09
2022-12-18T13:53:30.927Z,0.18
2022-12-18T13:54:37.901Z,0.20
2022-12-18T13:55:39.521Z,-0.03
2022-12-18T13:56:47.201Z,-0.23
2022-12-18T13:57:48.771Z,-0.25
2022-12-18T13:59:14.021Z,-0.08
2022-12-18T14:00:25.868Z,-0.22
2022-12-18T14:01:28.990Z,-0.09
2022-12-18T14:02:32.509Z,0.20
2022-12-18T14:03:34.169Z,0.34
2022-12-18T14:04:38.974Z,0.17
2022-12-18T14:05:43.353Z,0.13
2022-12-18T14:06:48.325Z,0.28
2022-12-18T14:07:51.559Z,0.37
2022-12-18T14:08:54.937Z,0.40
2022-12-18T14:11:26.496Z,0.41